Flight Track Log - Related Links

Times and Time Zones

All times are in EDT time to prevent confusion due to time zone crossing. See the ASQ4577 flight status page for this flight to view local times or setup timezone preferences in your user account.

Time Position Orientation Groundspeed Altitude Reporting Facility
EDT Latitude Longitude Course Direction KTS MPH feet Rate Location/Type
Sun 07:08:37 PM 41.4214 -81.8403 75° East 176 203 1,800  Level Cleveland Center
Sun 07:10:24 PM 41.5222 -81.7756 26° Northeast 254 292 4,700 1,904 Climbing Cleveland Center
Sun 07:11:00 PM 41.6411 -81.6090 37° Northeast  Level FlightAware Approximate
Sun 07:11:24 PM 41.5833 -81.7103 39° Northeast 265 305 7,100  Level Cleveland Center
Sun 07:12:00 PM 41.7222 -81.5278 37° Northeast  Level FlightAware Approximate
Sun 07:12:24 PM 41.6425 -81.6389 42° Northeast 285 328 9,300  Level Cleveland Center
Sun 07:13:00 PM 41.8033 -81.4467 37° Northeast  Level FlightAware Approximate
Sun 07:13:24 PM 41.7097 -81.5650 39° Northeast 299 344 10,800  Level Cleveland Center
Sun 07:14:00 PM 41.8434 -81.3329 75° East  Level FlightAware Approximate
Sun 07:14:24 PM 41.7606 -81.4794 51° Northeast 315 362 11,300  Level Cleveland Center
Sun 07:15:24 PM 41.7822 -81.3461 78° East 346 398 12,800 1,750 Climbing Cleveland Center
Sun 07:16:24 PM 41.8039 -81.2183 77° East 346 398 14,800 1,850 Climbing Cleveland Center
Sun 07:17:24 PM 41.8233 -81.0931 78° East 341 392 16,500 1,400 Climbing Cleveland Center
Sun 07:18:24 PM 41.8447 -80.9650 77° East 341 392 17,600 950 Climbing Cleveland Center
Sun 07:19:24 PM 41.8658 -80.8231 79° East 341 392 18,400 900 Climbing Cleveland Center
Sun 07:20:24 PM 41.8869 -80.6892 78° East 355 409 19,400 1,050 Climbing Cleveland Center
Sun 07:21:24 PM 41.9100 -80.5525 77° East 365 420 20,500 1,100 Climbing Cleveland Center
Sun 07:22:24 PM 41.9328 -80.4128 78° East 372 428 21,600 1,100 Climbing Cleveland Center
Sun 07:23:24 PM 41.9533 -80.2733 79° East 372 428 22,700 1,100 Climbing Cleveland Center
Sun 07:24:24 PM 41.9736 -80.1278 79° East 383 441 23,800 1,050 Climbing Cleveland Center
Sun 07:25:24 PM 41.9958 -79.9881 78° East 383 441 24,800 950 Climbing Cleveland Center
Sun 07:26:24 PM 42.0139 -79.8622 79° East 383 441 25,700 1,000 Climbing Cleveland Center
Sun 07:27:24 PM 42.0381 -79.7192 77° East 383 441 26,800 1,100 Climbing Cleveland Center
Sun 07:28:24 PM 42.0578 -79.5736 80° East 388 447 27,900 1,050 Climbing Cleveland Center
Sun 07:29:24 PM 42.0772 -79.4333 79° East 393 452 28,900 1,050 Climbing Cleveland Center
Sun 07:30:24 PM 42.0986 -79.2847 79° East 393 452 30,000 1,050 Climbing Cleveland Center
Sun 07:31:24 PM 42.1197 -79.1386 79° East 393 452 31,000 500 Climbing Cleveland Center
Sun 07:32:24 PM 42.1428 -78.9842 79° East 399 459 31,000  Level Cleveland Center
Sun 07:33:24 PM 42.1653 -78.8239 79° East 411 473 31,000  Level Cleveland Center
Sun 07:34:24 PM 42.1878 -78.6608 79° East 430 495 31,000 -200 Level Cleveland Center
Sun 07:35:24 PM 42.2100 -78.4975 80° East 430 495 30,600 -950 Descending Cleveland Center
Sun 07:36:24 PM 42.2319 -78.3369 79° East 430 495 29,100 -800 Descending Cleveland Center
Sun 07:37:24 PM 42.2539 -78.1761 80° East 430 495 29,000 -50 Descending Cleveland Center
Sun 07:38:24 PM 42.2753 -78.0183 80° East 430 495 29,000  Level Cleveland Center
Sun 07:39:24 PM 42.2947 -77.8631 80° East 430 495 29,000  Level Cleveland Center
Sun 07:40:24 PM 42.3158 -77.7019 80° East 430 495 29,000  Level Cleveland Center
Sun 07:41:24 PM 42.3367 -77.5408 80° East 430 495 29,000  Level Cleveland Center
Sun 07:42:24 PM 42.3572 -77.3742 80° East 430 495 29,000  Level Cleveland Center
Sun 07:44:52 PM 42.4075 -76.9792 80° East 444 511 29,000  Level Boston Center
Sun 07:45:52 PM 42.4300 -76.7783 81° East 444 511 29,000  Level Boston Center
Sun 07:46:52 PM 42.4508 -76.6108 80° East 444 511 29,000  Level Boston Center
Sun 07:47:52 PM 42.4694 -76.4431 81° East 444 511 29,000  Level Boston Center
Sun 07:48:52 PM 42.4897 -76.2781 80° East 444 511 29,000 -50 Level Boston Center
Sun 07:49:52 PM 42.5053 -76.1269 82° East 444 511 28,900 -200 Descending Boston Center
Sun 07:50:52 PM 42.5269 -75.9678 79° East 439 505 28,600 -950 Descending Boston Center
Sun 07:51:52 PM 42.5419 -75.8164 82° East 426 490 27,000 -1,550 Descending Boston Center
Sun 07:52:52 PM 42.5567 -75.6733 82° East 399 459 25,500 -1,700 Descending Boston Center
Sun 07:53:52 PM 42.5756 -75.5164 81° East 399 459 23,600 -2,050 Descending Boston Center
Sun 07:54:52 PM 42.5925 -75.3508 82° East 419 482 21,400 -2,300 Descending Boston Center
Sun 07:55:52 PM 42.6108 -75.1908 81° East 431 496 19,000 -2,200 Descending Boston Center
Sun 07:56:52 PM 42.6272 -75.0278 82° East 436 502 17,000 -2,100 Descending Boston Center
Sun 07:57:52 PM 42.6431 -74.8761 82° East 418 481 14,800 -2,220 Descending Boston Center
Sun 07:58:32 PM 42.6558 -74.7636 81° East 397 457 13,300 -2,113 Descending Boston Center
Sun 07:59:03 PM 42.6658 -74.6850 80° East 397 457 12,300 -1,650 Descending Boston Center
Sun 07:59:52 PM 42.6722 -74.5722 86° East 380 437 11,100 -936 Descending Boston Center
Sun 08:00:52 PM 42.6531 -74.4783 105° East 331 381 10,600 -1,250 Descending Boston Center
Sun 08:01:52 PM 42.6219 -74.3475 108° East 309 356 8,600 -1,800 Descending Boston Center
Sun 08:02:52 PM 42.6050 -74.2369 102° East 298 343 7,000 -1,550 Descending Boston Center
Sun 08:03:52 PM 42.5919 -74.1322 100° East 292 336 5,500 -1,400 Descending Boston Center
Sun 08:04:52 PM 42.5933 -74.0392 89° East 268 308 4,200 -1,000 Descending Boston Center
Sun 08:05:52 PM 42.5967 -73.9461 87° East 268 308 3,500 -450 Descending Boston Center
Sun 08:06:52 PM 42.6208 -73.8650 68° East 255 293 3,300 -200 Descending Boston Center

Login

Don't have an account? Register now (free) for customized features, flight alerts, and more!